createdAt,value
2023-04-14T00:00:49.513Z,7.29
2023-04-14T00:04:18.077Z,7.28
2023-04-14T00:07:45.154Z,7.28
2023-04-14T00:11:11.967Z,7.27
2023-04-14T00:14:38.974Z,7.27
2023-04-14T00:18:06.342Z,7.26
2023-04-14T00:21:33.560Z,7.25
2023-04-14T00:25:01.323Z,7.24
2023-04-14T00:28:28.369Z,7.23
2023-04-14T00:31:55.368Z,7.22
2023-04-14T00:35:22.232Z,7.21
2023-04-14T00:38:49.389Z,7.21
2023-04-14T00:42:16.366Z,7.21
2023-04-14T00:45:46.199Z,7.22
2023-04-14T00:49:13.502Z,7.24
2023-04-14T00:52:43.812Z,7.26
2023-04-14T00:56:11.137Z,7.27
2023-04-14T00:59:39.385Z,7.29
2023-04-14T01:03:07.181Z,7.31
2023-04-14T01:06:34.884Z,7.31
2023-04-14T01:10:02.149Z,7.32
2023-04-14T01:13:36.717Z,7.33
2023-04-14T01:17:10.412Z,7.33
2023-04-14T01:20:42.017Z,7.35
2023-04-14T01:24:27.384Z,7.37
2023-04-14T01:28:06.548Z,7.40
2023-04-14T01:31:39.719Z,7.42
2023-04-14T01:35:13.266Z,7.45
2023-04-14T01:38:42.049Z,7.48
2023-04-14T01:42:12.434Z,7.52
2023-04-14T01:45:44.115Z,7.56
2023-04-14T01:49:11.556Z,7.59
2023-04-14T01:52:39.573Z,7.62
2023-04-14T01:56:08.963Z,7.63
2023-04-14T01:59:38.244Z,7.64
2023-04-14T02:03:07.316Z,7.65
2023-04-14T02:06:37.026Z,7.66
2023-04-14T02:10:04.665Z,7.66
2023-04-14T02:13:33.007Z,7.67
2023-04-14T02:17:02.918Z,7.68
2023-04-14T02:20:30.906Z,7.69
2023-04-14T02:23:57.841Z,7.69
2023-04-14T02:27:32.026Z,7.69
2023-04-14T02:31:02.566Z,7.69
2023-04-14T02:34:36.133Z,7.70
2023-04-14T02:38:09.442Z,7.70
2023-04-14T02:41:39.732Z,7.70
2023-04-14T02:45:13.334Z,7.70
2023-04-14T02:48:43.102Z,7.71
2023-04-14T02:52:15.446Z,7.72
2023-04-14T02:55:43.432Z,7.73
2023-04-14T02:59:11.375Z,7.75
2023-04-14T03:02:47.261Z,7.77
2023-04-14T03:06:15.947Z,7.78
2023-04-14T03:09:44.618Z,7.78
2023-04-14T03:13:12.890Z,7.79
2023-04-14T03:16:41.257Z,7.80
2023-04-14T03:20:11.033Z,7.83
2023-04-14T03:23:39.559Z,7.85
2023-04-14T03:27:13.267Z,7.86
2023-04-14T03:30:45.327Z,7.86
2023-04-14T03:34:15.384Z,7.86
2023-04-14T03:37:44.238Z,7.86
2023-04-14T03:41:13.157Z,7.86
2023-04-14T03:44:46.188Z,7.86
2023-04-14T03:48:17.196Z,7.86
2023-04-14T03:51:49.694Z,7.84
2023-04-14T03:55:19.820Z,7.83
2023-04-14T03:58:49.363Z,7.82
2023-04-14T04:02:18.111Z,7.82
2023-04-14T04:05:48.793Z,7.83
2023-04-14T04:09:18.046Z,7.85
2023-04-14T04:12:47.963Z,7.86
2023-04-14T04:16:17.077Z,7.87
2023-04-14T04:19:46.218Z,7.88
2023-04-14T04:23:15.910Z,7.87
2023-04-14T04:26:43.222Z,7.87
2023-04-14T04:30:14.304Z,7.87
2023-04-14T04:33:42.285Z,7.86
2023-04-14T04:37:11.189Z,7.87
2023-04-14T04:40:41.471Z,7.87
2023-04-14T04:44:15.030Z,7.88
2023-04-14T04:47:42.111Z,7.88
2023-04-14T04:51:09.191Z,7.89
2023-04-14T04:54:35.977Z,7.89
2023-04-14T04:58:03.018Z,7.89
2023-04-14T05:01:30.249Z,7.89
2023-04-14T05:04:57.524Z,7.90
2023-04-14T05:08:24.636Z,7.90
2023-04-14T05:11:51.570Z,7.91
2023-04-14T05:15:19.218Z,7.91
2023-04-14T05:18:46.307Z,7.90
2023-04-14T05:22:14.135Z,7.89
2023-04-14T05:25:41.416Z,7.90
2023-04-14T05:29:08.463Z,7.89
2023-04-14T05:32:35.412Z,7.90
2023-04-14T05:36:02.380Z,7.91
2023-04-14T05:39:29.369Z,7.91
2023-04-14T05:42:57.122Z,7.90
2023-04-14T05:46:24.202Z,7.89
2023-04-14T05:49:51.347Z,7.88
2023-04-14T05:53:18.426Z,7.87
2023-04-14T05:56:45.694Z,7.86
2023-04-14T06:00:14.593Z,7.86
2023-04-14T06:03:42.388Z,7.85
2023-04-14T06:07:09.743Z,7.85
2023-04-14T06:10:36.656Z,7.87
2023-04-14T06:14:05.460Z,7.88
2023-04-14T06:17:32.754Z,7.91
2023-04-14T06:20:59.902Z,7.93
2023-04-14T06:24:27.134Z,7.95
2023-04-14T06:27:53.944Z,7.99
2023-04-14T06:31:20.887Z,8.03
2023-04-14T06:34:49.829Z,8.08
2023-04-14T06:38:18.120Z,8.12
2023-04-14T06:41:45.183Z,8.15
2023-04-14T06:45:14.744Z,8.17
2023-04-14T06:48:41.751Z,8.18
2023-04-14T06:52:09.197Z,8.20
2023-04-14T06:55:41.641Z,8.22
2023-04-14T06:59:08.561Z,8.24
2023-04-14T07:02:35.559Z,8.27
2023-04-14T07:06:11.530Z,8.33
2023-04-14T07:09:38.502Z,8.39
2023-04-14T07:13:05.606Z,8.43
2023-04-14T07:16:32.540Z,8.47
2023-04-14T07:19:59.542Z,8.52
2023-04-14T07:23:26.720Z,8.58
2023-04-14T07:26:53.660Z,8.65
2023-04-14T07:30:21.422Z,8.73
2023-04-14T07:33:48.361Z,8.85
2023-04-14T07:37:16.553Z,8.97
2023-04-14T07:40:43.278Z,9.10
2023-04-14T07:44:10.452Z,9.20
2023-04-14T07:47:37.527Z,9.33
2023-04-14T07:51:05.565Z,9.45
2023-04-14T07:54:32.976Z,9.59
2023-04-14T07:57:59.953Z,9.72
2023-04-14T08:01:27.130Z,9.81
2023-04-14T08:04:54.652Z,9.90
2023-04-14T08:08:21.632Z,9.96
2023-04-14T08:11:48.486Z,9.97
2023-04-14T08:15:15.619Z,10.00
2023-04-14T08:18:43.496Z,10.02
2023-04-14T08:22:10.373Z,10.13
2023-04-14T08:25:37.352Z,10.30
2023-04-14T08:29:04.508Z,10.43
2023-04-14T08:32:31.741Z,10.49
2023-04-14T08:36:00.359Z,10.56
2023-04-14T08:39:29.231Z,10.66
2023-04-14T08:42:57.639Z,10.75
2023-04-14T08:46:27.625Z,10.84
2023-04-14T08:50:06.110Z,10.88
2023-04-14T08:53:35.052Z,10.89
2023-04-14T08:57:03.001Z,10.94
2023-04-14T09:00:31.031Z,10.98
2023-04-14T09:03:59.286Z,11.03
2023-04-14T09:07:30.230Z,11.04
2023-04-14T09:11:01.926Z,11.06
2023-04-14T09:14:33.132Z,11.19
2023-04-14T09:18:03.666Z,11.32
2023-04-14T09:21:53.578Z,11.38
2023-04-14T09:25:23.519Z,11.48
2023-04-14T09:28:52.547Z,11.62
2023-04-14T09:32:20.960Z,11.71
2023-04-14T09:35:51.886Z,11.76
2023-04-14T09:39:21.792Z,11.75
2023-04-14T09:42:49.036Z,11.77
2023-04-14T09:46:16.730Z,11.78
2023-04-14T09:49:58.621Z,11.79
2023-04-14T09:53:29.938Z,11.82
2023-04-14T09:56:57.709Z,11.89
2023-04-14T10:00:25.777Z,11.98
2023-04-14T10:03:53.087Z,12.08
2023-04-14T10:07:21.520Z,12.27
2023-04-14T10:10:48.687Z,12.43
2023-04-14T10:14:15.638Z,12.57
2023-04-14T10:17:43.521Z,12.69
2023-04-14T10:21:11.492Z,12.85
2023-04-14T10:24:39.358Z,13.02
2023-04-14T10:28:06.716Z,13.21
2023-04-14T10:31:37.373Z,13.44
2023-04-14T10:35:08.818Z,13.74
2023-04-14T10:38:44.002Z,14.00
2023-04-14T10:42:11.213Z,14.30
2023-04-14T10:45:56.229Z,14.55
2023-04-14T10:49:26.914Z,14.89
2023-04-14T10:52:57.808Z,15.19
2023-04-14T10:56:26.437Z,15.47
2023-04-14T10:59:57.406Z,15.68
2023-04-14T11:03:25.652Z,15.90
2023-04-14T11:06:57.188Z,16.12
2023-04-14T11:10:31.540Z,16.27
2023-04-14T11:14:14.966Z,16.32
2023-04-14T11:17:43.303Z,16.28
2023-04-14T11:21:13.462Z,16.28
2023-04-14T11:24:41.500Z,16.35
2023-04-14T11:28:08.851Z,16.40
2023-04-14T11:31:37.904Z,16.51
2023-04-14T11:35:13.913Z,16.62
2023-04-14T11:38:42.881Z,16.75
2023-04-14T11:42:09.230Z,16.84
2023-04-14T11:45:43.356Z,16.97
2023-04-14T11:49:10.909Z,17.15
2023-04-14T11:52:40.271Z,17.35
2023-04-14T11:56:09.591Z,17.52
2023-04-14T11:59:46.067Z,17.66
2023-04-14T12:03:19.552Z,17.79
2023-04-14T12:06:47.386Z,17.84
2023-04-14T12:10:17.844Z,17.85
2023-04-14T12:13:50.800Z,17.83
2023-04-14T12:17:22.315Z,17.74
2023-04-14T12:20:57.628Z,17.67
2023-04-14T12:24:25.203Z,17.69
2023-04-14T12:27:57.123Z,17.78
2023-04-14T12:31:31.257Z,17.91
2023-04-14T12:34:58.821Z,18.13
2023-04-14T12:38:29.849Z,18.45
2023-04-14T12:41:58.930Z,18.81
2023-04-14T12:45:26.937Z,19.02
2023-04-14T12:48:55.077Z,19.22
2023-04-14T12:52:37.041Z,19.30
2023-04-14T12:56:09.442Z,19.25
2023-04-14T12:59:39.620Z,19.25
2023-04-14T13:03:07.188Z,19.26
2023-04-14T13:06:35.031Z,19.24
2023-04-14T13:10:02.162Z,19.23
2023-04-14T13:13:29.364Z,19.19
2023-04-14T13:16:56.299Z,19.24
2023-04-14T13:20:23.603Z,19.22
2023-04-14T13:23:50.999Z,19.23
2023-04-14T13:27:18.731Z,19.19
2023-04-14T13:30:47.218Z,19.13
2023-04-14T13:34:14.426Z,18.99
2023-04-14T13:37:42.671Z,18.89
2023-04-14T13:41:09.611Z,18.87
2023-04-14T13:44:37.774Z,19.00
2023-04-14T13:48:05.032Z,19.05
2023-04-14T13:51:33.467Z,19.00
2023-04-14T13:55:00.750Z,18.91
2023-04-14T13:58:27.928Z,18.90
2023-04-14T14:01:54.959Z,18.90
2023-04-14T14:05:21.951Z,18.82
2023-04-14T14:09:01.463Z,18.78
2023-04-14T14:12:31.000Z,18.73
2023-04-14T14:15:58.093Z,18.63
2023-04-14T14:19:25.966Z,18.50
2023-04-14T14:22:55.696Z,18.41
2023-04-14T14:26:25.893Z,18.42
2023-04-14T14:29:56.118Z,18.51
2023-04-14T14:33:24.918Z,18.53
2023-04-14T14:36:59.405Z,18.50
2023-04-14T14:40:27.442Z,18.42
2023-04-14T14:43:56.026Z,18.33
2023-04-14T14:47:24.387Z,18.26
2023-04-14T14:50:53.369Z,18.15
2023-04-14T14:54:23.614Z,18.01
2023-04-14T14:57:53.825Z,17.89
2023-04-14T15:01:19.575Z,17.82
2023-04-14T15:04:54.261Z,17.79
2023-04-14T15:08:29.389Z,17.74
2023-04-14T15:12:00.184Z,17.68
2023-04-14T15:15:30.234Z,17.61
2023-04-14T15:18:56.564Z,17.53
2023-04-14T15:22:26.036Z,17.47
2023-04-14T15:25:54.888Z,17.39
2023-04-14T15:29:26.925Z,17.31
2023-04-14T15:32:54.771Z,17.24
2023-04-14T15:36:25.530Z,17.16
2023-04-14T15:39:54.751Z,17.09
2023-04-14T15:43:27.884Z,17.07
2023-04-14T15:47:00.478Z,17.05
2023-04-14T15:50:44.349Z,16.99
2023-04-14T15:54:16.506Z,16.90
2023-04-14T15:57:48.129Z,16.82
2023-04-14T16:01:21.246Z,16.76
2023-04-14T16:04:51.197Z,16.74
2023-04-14T16:08:19.424Z,16.69
2023-04-14T16:11:47.402Z,16.64
2023-04-14T16:15:15.990Z,16.58
2023-04-14T16:18:44.396Z,16.52
2023-04-14T16:22:12.883Z,16.46
2023-04-14T16:25:40.662Z,16.42
2023-04-14T16:29:08.984Z,16.40
2023-04-14T16:32:36.516Z,16.35
2023-04-14T16:36:10.324Z,16.28
2023-04-14T16:39:41.703Z,16.21
2023-04-14T16:43:10.199Z,16.12
2023-04-14T16:46:38.166Z,16.04
2023-04-14T16:50:06.420Z,15.97
2023-04-14T16:53:36.723Z,15.89
2023-04-14T16:57:05.488Z,15.81
2023-04-14T17:00:34.266Z,15.73
2023-04-14T17:04:04.245Z,15.66
2023-04-14T17:07:36.024Z,15.58
2023-04-14T17:11:06.799Z,15.51
2023-04-14T17:14:35.688Z,15.44
2023-04-14T17:18:08.750Z,15.37
2023-04-14T17:21:39.988Z,15.30
2023-04-14T17:25:13.755Z,15.24
2023-04-14T17:28:40.490Z,15.17
2023-04-14T17:32:08.358Z,15.10
2023-04-14T17:35:36.626Z,15.04
2023-04-14T17:39:04.417Z,14.98
2023-04-14T17:42:31.804Z,14.91
2023-04-14T17:45:58.808Z,14.86
2023-04-14T17:49:26.128Z,14.81
2023-04-14T17:52:53.586Z,14.76
2023-04-14T17:56:20.471Z,14.72
2023-04-14T17:59:47.736Z,14.70
2023-04-14T18:03:15.250Z,14.65
2023-04-14T18:06:43.196Z,14.62
2023-04-14T18:10:12.114Z,14.58
2023-04-14T18:13:38.989Z,14.55
2023-04-14T18:17:06.622Z,14.51
2023-04-14T18:20:34.901Z,14.46
2023-04-14T18:31:04.175Z,14.34
2023-04-14T18:34:32.053Z,14.30
2023-04-14T18:37:59.045Z,14.26
2023-04-14T18:41:26.946Z,14.22
2023-04-14T18:44:56.406Z,14.16
2023-04-14T18:48:22.685Z,14.10
2023-04-14T18:51:50.421Z,14.05
2023-04-14T18:55:19.546Z,14.01
2023-04-14T18:58:47.473Z,13.97
2023-04-14T19:02:14.945Z,13.94
2023-04-14T19:05:42.720Z,13.93
2023-04-14T19:09:09.458Z,13.92
2023-04-14T19:12:40.790Z,13.88
2023-04-14T19:16:11.955Z,13.86
2023-04-14T19:19:42.753Z,13.84
2023-04-14T19:23:10.708Z,13.84
2023-04-14T19:26:42.443Z,13.83
2023-04-14T19:30:13.258Z,13.82
2023-04-14T19:33:42.880Z,13.81
2023-04-14T19:37:10.998Z,13.81
2023-04-14T19:40:38.311Z,13.81
2023-04-14T19:44:06.153Z,13.80
2023-04-14T19:47:33.117Z,13.82
2023-04-14T19:51:00.094Z,13.85
2023-04-14T19:54:27.774Z,13.87
2023-04-14T19:57:54.697Z,13.87
2023-04-14T20:01:24.057Z,13.85
2023-04-14T20:04:51.354Z,13.82
2023-04-14T20:08:18.335Z,13.79
2023-04-14T20:11:45.809Z,13.77
2023-04-14T20:15:13.621Z,13.75
2023-04-14T20:18:40.615Z,13.70
2023-04-14T20:22:07.684Z,13.67
2023-04-14T20:25:34.931Z,13.64
2023-04-14T20:29:01.766Z,13.59
2023-04-14T20:32:29.412Z,13.53
2023-04-14T20:35:58.037Z,13.47
2023-04-14T20:39:25.367Z,13.40
2023-04-14T20:42:52.488Z,13.33
2023-04-14T20:46:21.026Z,13.24
2023-04-14T20:49:48.128Z,13.16
2023-04-14T20:53:14.962Z,13.08
2023-04-14T20:56:42.261Z,13.00
2023-04-14T21:00:11.945Z,12.93
2023-04-14T21:03:37.337Z,12.85
2023-04-14T21:07:05.074Z,12.75
2023-04-14T21:10:32.138Z,12.68
2023-04-14T21:15:26.689Z,12.61
2023-04-14T21:17:45.889Z,12.53
2023-04-14T21:21:13.721Z,12.47
2023-04-14T21:24:42.870Z,12.42
2023-04-14T21:28:10.389Z,12.38
2023-04-14T21:31:37.728Z,12.35
2023-04-14T21:35:05.034Z,12.30
2023-04-14T21:38:31.928Z,12.25
2023-04-14T21:41:59.073Z,12.20
2023-04-14T21:45:26.812Z,12.14
2023-04-14T21:48:53.784Z,12.07
2023-04-14T21:52:20.843Z,11.99
2023-04-14T21:55:47.813Z,11.92
2023-04-14T21:59:32.235Z,11.85
2023-04-14T22:02:59.502Z,11.78
2023-04-14T22:06:27.799Z,11.73
2023-04-14T22:09:54.954Z,11.68
2023-04-14T22:13:22.139Z,11.64
2023-04-14T22:16:49.421Z,11.57
2023-04-14T22:20:16.656Z,11.50
2023-04-14T22:23:44.760Z,11.46
2023-04-14T22:27:11.684Z,11.42
2023-04-14T22:30:38.969Z,11.36
2023-04-14T22:34:06.622Z,11.33
2023-04-14T22:37:33.428Z,11.28
2023-04-14T22:41:00.702Z,11.23
2023-04-14T22:44:27.643Z,11.19
2023-04-14T22:47:54.604Z,11.14
2023-04-14T22:51:21.764Z,11.10
2023-04-14T22:54:49.161Z,11.06
2023-04-14T22:58:18.462Z,11.03
2023-04-14T23:01:45.312Z,11.00
2023-04-14T23:05:14.346Z,10.97
2023-04-14T23:08:41.348Z,10.94
2023-04-14T23:12:10.455Z,10.91
2023-04-14T23:15:37.432Z,10.88
2023-04-14T23:19:04.676Z,10.83
2023-04-14T23:22:32.877Z,10.80
2023-04-14T23:25:59.794Z,10.77
2023-04-14T23:29:26.704Z,10.73
2023-04-14T23:32:53.743Z,10.70
2023-04-14T23:36:20.717Z,10.66
2023-04-14T23:39:48.108Z,10.64
2023-04-14T23:43:15.731Z,10.62
2023-04-14T23:46:42.755Z,10.60
2023-04-14T23:50:10.792Z,10.57
2023-04-14T23:53:38.139Z,10.53
2023-04-14T23:57:05.425Z,10.51
